createdAt,value
2019-04-04T00:02:17.083Z,15.00
2019-04-04T00:04:47.829Z,15.70
2019-04-04T00:07:16.028Z,14.95
2019-04-04T00:09:44.147Z,15.10
2019-04-04T00:12:12.264Z,15.33
2019-04-04T00:14:43.373Z,14.13
2019-04-04T00:17:10.352Z,14.77
2019-04-04T00:19:38.494Z,14.67
2019-04-04T00:22:06.660Z,14.67
2019-04-04T00:24:34.827Z,14.90
2019-04-04T00:27:03.011Z,16.00
2019-04-04T00:29:31.142Z,15.28
2019-04-04T00:32:01.399Z,17.17
2019-04-04T00:34:29.632Z,15.00
2019-04-04T00:37:04.849Z,15.93
2019-04-04T00:39:33.530Z,15.90
2019-04-04T00:42:01.638Z,15.23
2019-04-04T00:44:29.763Z,16.03
2019-04-04T00:46:57.861Z,14.50
2019-04-04T00:49:25.987Z,14.83
2019-04-04T00:51:54.106Z,15.40
2019-04-04T00:54:22.281Z,15.90
2019-04-04T00:56:51.935Z,14.63
2019-04-04T00:59:22.764Z,14.77
2019-04-04T01:01:49.962Z,15.50
2019-04-04T01:04:18.080Z,15.72
2019-04-04T01:06:46.183Z,15.63
2019-04-04T01:09:14.335Z,15.40
2019-04-04T01:11:42.435Z,15.03
2019-04-04T01:14:10.554Z,16.65
2019-04-04T01:16:40.302Z,15.33
2019-04-04T01:19:09.970Z,15.65
2019-04-04T01:21:38.275Z,15.13
2019-04-04T01:24:06.581Z,16.42
2019-04-04T01:26:35.274Z,17.20
2019-04-04T01:29:05.764Z,14.40
2019-04-04T01:31:34.261Z,15.83
2019-04-04T01:34:02.356Z,14.93
2019-04-04T01:36:30.473Z,16.03
2019-04-04T01:39:00.181Z,14.87
2019-04-04T01:41:29.212Z,14.03
2019-04-04T01:44:04.911Z,14.10
2019-04-04T01:46:27.903Z,20.73
2019-04-04T01:48:57.761Z,20.07
2019-04-04T01:51:26.130Z,15.67
2019-04-04T01:53:54.315Z,14.07
2019-04-04T01:56:22.427Z,14.37
2019-04-04T01:58:50.567Z,14.87
2019-04-04T02:01:18.700Z,14.33
2019-04-04T02:03:46.831Z,14.98
2019-04-04T02:06:14.952Z,14.90
2019-04-04T02:08:43.744Z,15.30
2019-04-04T02:11:11.881Z,13.60
2019-04-04T02:13:40.893Z,14.10
2019-04-04T02:16:09.806Z,14.13
2019-04-04T02:18:37.987Z,14.33
2019-04-04T02:21:06.298Z,14.43
2019-04-04T02:23:34.452Z,14.50
2019-04-04T02:26:05.151Z,14.03
2019-04-04T02:28:32.984Z,14.40
2019-04-04T02:31:01.277Z,15.47
2019-04-04T02:33:31.966Z,15.32
2019-04-04T02:35:59.265Z,14.23
2019-04-04T02:38:28.280Z,14.87
2019-04-04T02:40:56.537Z,14.63
2019-04-04T02:43:27.229Z,14.93
2019-04-04T02:45:54.609Z,14.93
2019-04-04T02:48:24.499Z,13.87
2019-04-04T02:50:52.901Z,14.03
2019-04-04T02:53:22.614Z,14.50
2019-04-04T02:55:50.744Z,14.63
2019-04-04T02:58:19.087Z,14.00
2019-04-04T03:00:47.341Z,15.33
2019-04-04T03:03:15.572Z,15.07
2019-04-04T03:05:43.814Z,15.30
2019-04-04T03:08:11.975Z,14.43
2019-04-04T03:10:40.903Z,14.83
2019-04-04T03:13:09.001Z,14.00
2019-04-04T03:15:40.826Z,13.90
2019-04-04T03:18:06.950Z,14.87
2019-04-04T03:20:35.058Z,14.20
2019-04-04T03:23:03.172Z,14.97
2019-04-04T03:25:31.297Z,15.08
2019-04-04T03:27:59.657Z,14.85
2019-04-04T03:30:27.776Z,14.80
2019-04-04T03:32:55.985Z,13.80
2019-04-04T03:35:28.276Z,14.53
2019-04-04T03:37:54.064Z,14.38
2019-04-04T03:40:24.627Z,14.38
2019-04-04T03:42:52.030Z,15.07
2019-04-04T03:45:20.265Z,13.45
2019-04-04T03:47:48.382Z,13.87
2019-04-04T03:50:16.491Z,14.33
2019-04-04T03:52:44.744Z,14.33
2019-04-04T03:55:12.973Z,14.78
2019-04-04T03:57:41.157Z,14.25
2019-04-04T04:00:09.466Z,14.30
2019-04-04T04:02:37.595Z,14.57
2019-04-04T04:05:24.058Z,15.03
2019-04-04T04:07:52.242Z,13.58
2019-04-04T04:10:20.443Z,13.60
2019-04-04T04:12:48.677Z,13.90
2019-04-04T04:15:17.002Z,14.07
2019-04-04T04:17:46.521Z,13.75
2019-04-04T04:20:14.793Z,14.27
2019-04-04T04:22:42.901Z,13.20
2019-04-04T04:25:13.541Z,13.73
2019-04-04T04:27:41.412Z,14.30
2019-04-04T04:30:10.038Z,13.70
2019-04-04T04:32:38.149Z,13.53
2019-04-04T04:35:08.575Z,14.30
2019-04-04T04:37:36.171Z,14.87
2019-04-04T04:40:05.153Z,14.20
2019-04-04T04:42:33.288Z,13.33
2019-04-04T04:45:01.727Z,13.03
2019-04-04T04:47:29.951Z,13.40
2019-04-04T04:49:58.157Z,13.83
2019-04-04T04:52:26.304Z,14.45
2019-04-04T04:54:54.659Z,14.40
2019-04-04T04:57:29.719Z,13.70
2019-04-04T04:59:53.522Z,12.80
2019-04-04T05:02:22.366Z,14.33
2019-04-04T05:04:51.136Z,13.97
2019-04-04T05:07:19.400Z,13.53
2019-04-04T05:09:47.511Z,14.33
2019-04-04T05:12:15.654Z,15.03
2019-04-04T05:14:47.621Z,15.55
2019-04-04T05:17:17.554Z,14.63
2019-04-04T05:19:45.784Z,14.30
2019-04-04T05:22:13.888Z,14.07
2019-04-04T05:24:42.001Z,14.90
2019-04-04T05:27:10.248Z,13.67
2019-04-04T05:29:38.514Z,13.73
2019-04-04T05:32:06.763Z,13.90
2019-04-04T05:34:35.006Z,14.20
2019-04-04T05:37:03.254Z,14.50
2019-04-04T05:39:31.571Z,14.83
2019-04-04T05:42:00.479Z,14.47
2019-04-04T05:44:29.361Z,14.97
2019-04-04T05:46:58.365Z,15.17
2019-04-04T05:49:26.568Z,14.03
2019-04-04T05:51:54.755Z,14.63
2019-04-04T05:54:22.882Z,13.73
2019-04-04T05:56:51.181Z,14.83
2019-04-04T05:59:19.318Z,14.10
2019-04-04T06:01:47.488Z,14.07
2019-04-04T06:04:17.245Z,14.33
2019-04-04T06:06:45.518Z,13.97
2019-04-04T06:09:14.717Z,14.17
2019-04-04T06:11:43.079Z,15.40
2019-04-04T06:14:11.192Z,13.43
2019-04-04T06:16:39.311Z,14.63
2019-04-04T06:19:07.500Z,14.83
2019-04-04T06:21:35.797Z,13.97
2019-04-04T06:24:04.122Z,14.70
2019-04-04T06:26:32.246Z,14.47
2019-04-04T06:29:00.360Z,13.80
2019-04-04T06:31:30.862Z,15.10
2019-04-04T06:33:58.386Z,14.93
2019-04-04T06:36:26.532Z,14.43
2019-04-04T06:38:54.749Z,12.93
2019-04-04T06:41:22.925Z,14.47
2019-04-04T06:43:51.039Z,13.18
2019-04-04T06:46:22.623Z,14.33
2019-04-04T06:48:50.071Z,13.73
2019-04-04T06:51:18.236Z,13.93
2019-04-04T06:53:47.076Z,13.17
2019-04-04T06:56:15.507Z,13.10
2019-04-04T06:58:43.664Z,12.17
2019-04-04T07:01:11.808Z,13.98
2019-04-04T07:03:39.978Z,13.73
2019-04-04T07:06:10.253Z,13.93
2019-04-04T07:08:38.041Z,12.80
2019-04-04T07:11:15.623Z,13.77
2019-04-04T07:13:42.425Z,14.03
2019-04-04T07:16:07.983Z,11.83
2019-04-04T07:18:35.896Z,13.57
2019-04-04T07:21:04.097Z,12.40
2019-04-04T07:23:32.303Z,12.90
2019-04-04T07:26:00.488Z,13.77
2019-04-04T07:28:31.010Z,12.53
2019-04-04T07:31:01.363Z,12.70
2019-04-04T07:33:29.116Z,12.67
2019-04-04T07:35:57.222Z,13.93
2019-04-04T07:38:28.690Z,13.58
2019-04-04T07:40:57.431Z,12.95
2019-04-04T07:43:25.576Z,14.47
2019-04-04T07:45:55.279Z,13.37
2019-04-04T07:48:23.557Z,13.53
2019-04-04T07:50:51.705Z,14.77
2019-04-04T07:53:20.006Z,16.63
2019-04-04T07:55:48.195Z,16.20
2019-04-04T07:58:16.341Z,14.75
2019-04-04T08:00:44.466Z,14.13
2019-04-04T08:03:12.576Z,13.08
2019-04-04T08:05:42.390Z,13.70
2019-04-04T08:08:10.499Z,13.90
2019-04-04T08:10:40.355Z,13.37
2019-04-04T08:13:08.469Z,14.57
2019-04-04T08:15:36.651Z,12.70
2019-04-04T08:18:06.473Z,13.87
2019-04-04T08:20:34.600Z,14.43
2019-04-04T08:23:02.799Z,11.87
2019-04-04T08:25:30.920Z,12.30
2019-04-04T08:27:59.389Z,34.57
2019-04-04T08:30:28.335Z,10.77
2019-04-04T08:32:56.511Z,10.87
2019-04-04T08:35:24.626Z,14.17
2019-04-04T08:37:52.904Z,11.10
2019-04-04T08:40:21.123Z,11.83
2019-04-04T08:42:49.291Z,13.18
2019-04-04T08:45:17.416Z,12.37
2019-04-04T08:47:45.507Z,12.40
2019-04-04T08:50:13.729Z,13.67
2019-04-04T08:52:42.563Z,12.93
2019-04-04T08:55:10.859Z,12.57
2019-04-04T08:57:38.986Z,13.20
2019-04-04T09:00:07.773Z,12.90
2019-04-04T09:02:35.882Z,13.30
2019-04-04T09:05:11.881Z,13.65
2019-04-04T09:07:35.238Z,12.87
2019-04-04T09:10:05.803Z,13.70
2019-04-04T09:12:34.065Z,12.73
2019-04-04T09:15:03.295Z,16.27
2019-04-04T09:17:31.523Z,14.13
2019-04-04T09:19:59.744Z,13.60
2019-04-04T09:22:27.851Z,12.23
2019-04-04T09:24:55.996Z,11.70
2019-04-04T09:27:24.111Z,12.40
2019-04-04T09:29:52.208Z,13.07
2019-04-04T09:32:20.484Z,13.07
2019-04-04T09:34:51.658Z,11.47
2019-04-04T09:37:22.809Z,11.60
2019-04-04T09:39:54.186Z,10.98
2019-04-04T09:42:26.688Z,11.83
2019-04-04T09:45:00.835Z,12.05
2019-04-04T09:47:28.974Z,21.17
2019-04-04T09:49:57.146Z,24.32
2019-04-04T09:52:25.339Z,12.67
2019-04-04T09:54:53.543Z,12.40
2019-04-04T09:57:21.681Z,14.60
2019-04-04T09:59:50.450Z,16.77
2019-04-04T10:02:18.577Z,19.87
2019-04-04T10:04:46.784Z,13.10
2019-04-04T10:07:14.926Z,12.97
2019-04-04T10:09:43.058Z,13.10
2019-04-04T10:12:11.223Z,11.88
2019-04-04T10:14:40.880Z,13.00
2019-04-04T10:17:09.032Z,15.40
2019-04-04T10:19:37.156Z,13.47
2019-04-04T10:22:05.276Z,11.25
2019-04-04T10:24:33.512Z,11.47
2019-04-04T10:27:01.676Z,12.07
2019-04-04T10:29:29.923Z,13.07
2019-04-04T10:31:58.030Z,12.87
2019-04-04T10:34:28.350Z,14.37
2019-04-04T10:36:56.014Z,14.80
2019-04-04T10:39:29.317Z,14.78
2019-04-04T10:41:54.112Z,21.23
2019-04-04T10:44:22.301Z,16.77
2019-04-04T10:46:50.418Z,17.47
2019-04-04T10:49:20.429Z,17.73
2019-04-04T10:51:48.723Z,17.33
2019-04-04T10:54:16.841Z,15.17
2019-04-04T10:56:44.952Z,16.10
2019-04-04T10:59:13.115Z,15.83
2019-04-04T11:01:42.059Z,15.57
2019-04-04T11:04:10.170Z,36.23
2019-04-04T11:06:38.383Z,25.93
2019-04-04T11:09:07.172Z,17.87
2019-04-04T11:11:35.304Z,17.53
2019-04-04T11:14:03.499Z,19.27
2019-04-04T11:16:31.625Z,18.97
2019-04-04T11:18:59.744Z,18.67
2019-04-04T11:21:27.890Z,18.02
2019-04-04T11:23:56.108Z,18.17
2019-04-04T11:26:24.284Z,20.13
2019-04-04T11:28:52.500Z,20.50
2019-04-04T11:31:20.724Z,21.97
2019-04-04T11:33:48.872Z,20.23
2019-04-04T11:36:17.060Z,19.90
2019-04-04T11:38:45.196Z,20.10
2019-04-04T11:41:13.411Z,21.00
2019-04-04T11:43:41.601Z,19.43
2019-04-04T11:46:09.739Z,16.60
2019-04-04T11:48:44.426Z,15.57
2019-04-04T11:51:12.620Z,14.93
2019-04-04T11:53:40.776Z,15.07
2019-04-04T11:56:08.974Z,15.57
2019-04-04T11:58:37.325Z,14.17
2019-04-04T12:01:07.092Z,13.87
2019-04-04T12:03:35.320Z,15.23
2019-04-04T12:06:05.249Z,14.93
2019-04-04T12:08:33.377Z,17.07
2019-04-04T12:11:01.633Z,15.70
2019-04-04T12:13:29.997Z,17.50
2019-04-04T12:15:58.155Z,16.75
2019-04-04T12:18:26.284Z,16.30
2019-04-04T12:20:55.232Z,16.77
2019-04-04T12:23:23.378Z,17.00
2019-04-04T12:25:52.058Z,16.60
2019-04-04T12:28:24.498Z,16.97
2019-04-04T12:30:52.601Z,17.13
2019-04-04T12:33:31.116Z,19.65
2019-04-04T12:35:59.500Z,18.43
2019-04-04T12:38:27.702Z,19.37
2019-04-04T12:40:55.821Z,19.63
2019-04-04T12:43:23.959Z,20.15
2019-04-04T12:45:52.331Z,23.60
2019-04-04T12:48:20.911Z,22.37
2019-04-04T12:50:49.046Z,22.50
2019-04-04T12:53:17.937Z,21.37
2019-04-04T12:55:47.566Z,21.20
2019-04-04T12:58:16.437Z,22.27
2019-04-04T13:00:44.570Z,20.97
2019-04-04T13:03:12.684Z,21.00
2019-04-04T13:05:40.989Z,20.23
2019-04-04T13:08:09.233Z,22.27
2019-04-04T13:10:39.339Z,21.75
2019-04-04T13:13:11.364Z,21.67
2019-04-04T13:15:52.876Z,22.10
2019-04-04T13:21:25.734Z,22.40
2019-04-04T13:23:53.952Z,22.22
2019-04-04T13:26:22.181Z,19.83
2019-04-04T13:28:51.260Z,21.55
2019-04-04T13:31:19.415Z,29.10
2019-04-04T13:33:47.553Z,18.67
2019-04-04T13:36:15.733Z,19.07
2019-04-04T13:38:43.870Z,18.73
2019-04-04T13:41:21.447Z,18.07
2019-04-04T13:43:41.949Z,19.13
2019-04-04T13:46:11.110Z,18.77
2019-04-04T13:48:43.199Z,18.90
2019-04-04T13:51:09.379Z,20.47
2019-04-04T13:53:37.599Z,20.77
2019-04-04T13:56:06.534Z,20.83
2019-04-04T13:58:34.738Z,21.60
2019-04-04T14:01:02.890Z,22.30
2019-04-04T14:03:31.115Z,25.70
2019-04-04T14:06:01.700Z,20.10
2019-04-04T14:08:29.399Z,19.93
2019-04-04T14:10:58.608Z,21.30
2019-04-04T14:13:26.961Z,22.80
2019-04-04T14:15:55.170Z,22.33
2019-04-04T14:18:24.110Z,23.65
2019-04-04T14:21:03.466Z,19.90
2019-04-04T14:23:25.328Z,21.60
2019-04-04T14:25:53.442Z,22.15
2019-04-04T14:28:21.744Z,21.17
2019-04-04T14:30:49.872Z,22.87
2019-04-04T14:33:18.166Z,21.63
2019-04-04T14:35:46.419Z,25.17
2019-04-04T14:38:14.541Z,20.30
2019-04-04T14:40:42.683Z,21.53
2019-04-04T14:43:10.883Z,21.97
2019-04-04T14:45:39.126Z,21.60
2019-04-04T14:48:08.734Z,22.13
2019-04-04T14:50:37.189Z,22.50
2019-04-04T14:53:06.147Z,29.27
2019-04-04T14:55:34.412Z,23.03
2019-04-04T14:58:03.356Z,21.00
2019-04-04T15:00:31.492Z,19.23
2019-04-04T15:02:59.626Z,16.73
2019-04-04T15:05:27.761Z,15.35
2019-04-04T15:07:56.039Z,16.93
2019-04-04T15:10:24.196Z,19.37
2019-04-04T15:12:52.338Z,18.80
2019-04-04T15:15:20.530Z,18.20
2019-04-04T15:17:48.720Z,16.33
2019-04-04T15:20:16.916Z,12.20
2019-04-04T15:22:45.055Z,13.88
2019-04-04T15:25:13.346Z,13.00
2019-04-04T15:27:41.500Z,13.20
2019-04-04T15:30:09.893Z,13.23
2019-04-04T15:32:38.287Z,13.37
2019-04-04T15:35:06.547Z,15.37
2019-04-04T15:37:34.753Z,13.83
2019-04-04T15:40:03.056Z,14.70
2019-04-04T15:42:31.185Z,13.70
2019-04-04T15:44:59.302Z,14.00
2019-04-04T15:47:27.457Z,15.17
2019-04-04T15:49:55.983Z,17.10
2019-04-04T15:52:24.191Z,11.73
2019-04-04T15:54:52.304Z,12.28
2019-04-04T15:57:20.558Z,12.10
2019-04-04T15:59:48.727Z,10.77
2019-04-04T16:02:16.946Z,11.83
2019-04-04T16:04:45.256Z,10.57
2019-04-04T16:07:13.892Z,10.28
2019-04-04T16:09:42.212Z,10.27
2019-04-04T16:12:10.951Z,10.83
2019-04-04T16:14:42.449Z,12.50
2019-04-04T16:17:14.131Z,10.97
2019-04-04T16:19:46.480Z,10.35
2019-04-04T16:22:23.247Z,10.77
2019-04-04T16:24:51.843Z,12.30
2019-04-04T16:27:23.106Z,11.47
2019-04-04T16:29:51.304Z,10.03
2019-04-04T16:32:19.524Z,11.23
2019-04-04T16:34:48.398Z,10.10
2019-04-04T16:37:17.129Z,10.90
2019-04-04T16:39:45.837Z,12.03
2019-04-04T16:42:14.409Z,12.20
2019-04-04T16:44:43.607Z,10.57
2019-04-04T16:49:46.375Z,10.63
2019-04-04T16:52:15.223Z,10.17
2019-04-04T16:54:44.040Z,10.07
2019-04-04T16:57:12.535Z,7.83
2019-04-04T16:59:41.279Z,8.27
2019-04-04T17:02:14.413Z,7.70
2019-04-04T17:04:43.483Z,7.13
2019-04-04T17:07:14.911Z,8.50
2019-04-04T17:10:05.884Z,8.00
2019-04-04T17:12:34.520Z,7.70
2019-04-04T17:15:03.057Z,6.72
2019-04-04T17:17:31.826Z,6.20
2019-04-04T17:20:00.670Z,5.60
2019-04-04T17:22:29.424Z,5.77
2019-04-04T17:24:58.675Z,5.80
2019-04-04T17:27:27.343Z,5.50
2019-04-04T17:29:57.989Z,5.80
2019-04-04T17:32:27.235Z,4.70
2019-04-04T17:34:57.099Z,5.03
2019-04-04T17:37:26.653Z,4.67
2019-04-04T17:39:55.944Z,4.73
2019-04-04T17:42:30.750Z,4.30
2019-04-04T17:44:56.241Z,4.63
2019-04-04T17:47:26.000Z,5.08
2019-04-04T17:49:54.707Z,5.00
2019-04-04T17:52:23.011Z,5.40
2019-04-04T17:54:51.156Z,5.83
2019-04-04T17:57:19.289Z,5.40
2019-04-04T17:59:47.474Z,12.63
2019-04-04T18:02:15.704Z,12.90
2019-04-04T18:04:48.459Z,16.97
2019-04-04T18:07:13.802Z,10.17
2019-04-04T18:09:45.473Z,6.90
2019-04-04T18:12:12.723Z,6.40
2019-04-04T18:14:41.031Z,5.57
2019-04-04T18:17:09.243Z,6.27
2019-04-04T18:19:37.395Z,6.70
2019-04-04T18:22:22.200Z,5.97
2019-04-04T18:24:51.330Z,6.63
2019-04-04T18:27:49.703Z,6.90
2019-04-04T18:30:18.098Z,7.40
2019-04-04T18:32:46.330Z,7.17
2019-04-04T18:35:15.001Z,7.17
2019-04-04T18:37:43.785Z,7.00
2019-04-04T18:40:12.099Z,9.37
2019-04-04T18:42:52.164Z,9.63
2019-04-04T18:45:10.570Z,10.38
2019-04-04T18:47:38.730Z,7.58
2019-04-04T18:50:07.420Z,7.73
2019-04-04T18:52:35.685Z,8.53
2019-04-04T18:55:05.371Z,7.50
2019-04-04T18:57:33.573Z,11.20
2019-04-04T19:00:01.754Z,8.93
2019-04-04T19:02:30.427Z,8.03
2019-04-04T19:04:58.630Z,8.03
2019-04-04T19:07:38.804Z,10.43
2019-04-04T19:09:59.664Z,14.17
2019-04-04T19:12:27.902Z,8.43
2019-04-04T19:14:56.097Z,7.35
2019-04-04T19:17:24.249Z,7.40
2019-04-04T19:19:53.198Z,7.85
2019-04-04T19:22:21.418Z,8.80
2019-04-04T19:24:49.978Z,6.73
2019-04-04T19:27:18.260Z,7.77
2019-04-04T19:29:46.548Z,7.50
2019-04-04T19:32:14.808Z,7.90
2019-04-04T19:34:43.817Z,8.23
2019-04-04T19:37:12.134Z,7.58
2019-04-04T19:39:40.336Z,7.53
2019-04-04T19:42:08.684Z,7.10
2019-04-04T19:44:36.945Z,6.17
2019-04-04T19:47:06.017Z,7.20
2019-04-04T19:49:34.203Z,9.50
2019-04-04T19:52:02.355Z,9.83
2019-04-04T19:54:30.522Z,9.20
2019-04-04T19:56:58.719Z,6.92
2019-04-04T19:59:26.873Z,6.70
2019-04-04T20:01:55.170Z,6.33
2019-04-04T20:04:24.104Z,8.93
2019-04-04T20:06:52.318Z,6.50
2019-04-04T20:09:20.525Z,6.30
2019-04-04T20:11:48.726Z,5.33
2019-04-04T20:14:17.025Z,6.60
2019-04-04T20:16:45.146Z,5.50
2019-04-04T20:19:13.384Z,6.27
2019-04-04T20:21:42.178Z,6.67
2019-04-04T20:24:10.424Z,7.20
2019-04-04T20:26:38.586Z,6.80
2019-04-04T20:29:06.790Z,6.93
2019-04-04T20:31:34.993Z,7.27
2019-04-04T20:34:05.798Z,7.20
2019-04-04T20:36:33.079Z,6.80
2019-04-04T20:39:02.102Z,21.17
2019-04-04T20:41:30.405Z,10.03
2019-04-04T20:43:58.528Z,8.00
2019-04-04T20:46:26.718Z,6.80
2019-04-04T20:48:54.910Z,6.97
2019-04-04T20:51:23.130Z,6.42
2019-04-04T20:53:51.253Z,6.50
2019-04-04T20:56:19.482Z,6.97
2019-04-04T21:03:56.449Z,16.27
2019-04-04T21:06:25.366Z,20.23
2019-04-04T21:08:53.561Z,9.53
2019-04-04T21:11:21.752Z,9.50
2019-04-04T21:13:56.540Z,8.43
2019-04-04T21:16:20.048Z,7.53
2019-04-04T21:18:48.266Z,7.67
2019-04-04T21:21:17.182Z,7.80
2019-04-04T21:23:48.431Z,7.97
2019-04-04T21:31:26.482Z,8.10
2019-04-04T21:33:54.610Z,7.40
2019-04-04T21:36:22.814Z,8.30
2019-04-04T21:38:50.948Z,8.75
2019-04-04T21:41:19.129Z,9.10
2019-04-04T21:43:47.327Z,7.97
2019-04-04T21:46:15.558Z,8.17
2019-04-04T21:48:44.458Z,7.53
2019-04-04T21:51:12.583Z,7.83
2019-04-04T21:53:40.747Z,8.43
2019-04-04T21:56:08.860Z,7.97
2019-04-04T21:58:37.112Z,8.17
2019-04-04T22:01:05.683Z,7.67
2019-04-04T22:03:36.562Z,7.87
2019-04-04T22:06:03.835Z,7.37
2019-04-04T22:08:31.968Z,7.83
2019-04-04T22:11:00.087Z,8.73
2019-04-04T22:13:28.213Z,7.97
2019-04-04T22:15:56.404Z,8.30
2019-04-04T22:18:24.595Z,7.80
2019-04-04T22:20:52.703Z,8.43
2019-04-04T22:23:20.829Z,8.28
2019-04-04T22:25:48.960Z,7.83
2019-04-04T22:28:17.144Z,9.30
2019-04-04T22:30:45.314Z,8.97
2019-04-04T22:33:13.445Z,9.53
2019-04-04T22:35:41.703Z,8.85
2019-04-04T22:38:09.836Z,8.17
2019-04-04T22:40:38.066Z,9.05
2019-04-04T22:43:06.309Z,9.73
2019-04-04T22:45:35.204Z,7.87
2019-04-04T22:48:03.429Z,9.33
2019-04-04T22:50:31.560Z,9.17
2019-04-04T22:52:59.718Z,8.73
2019-04-04T22:55:27.937Z,9.07
2019-04-04T22:57:56.083Z,9.60
2019-04-04T23:00:24.255Z,9.83
2019-04-04T23:02:52.384Z,8.90
2019-04-04T23:05:20.572Z,10.60
2019-04-04T23:07:48.701Z,9.87
2019-04-04T23:10:16.933Z,10.08
2019-04-04T23:12:45.073Z,9.37
2019-04-04T23:15:13.758Z,9.47
2019-04-04T23:17:41.970Z,10.07
2019-04-04T23:20:10.183Z,10.67
2019-04-04T23:22:38.401Z,11.10
2019-04-04T23:25:07.659Z,10.30
2019-04-04T23:27:35.819Z,10.70
2019-04-04T23:30:05.232Z,9.60
2019-04-04T23:32:33.384Z,10.77
2019-04-04T23:35:01.524Z,9.37
2019-04-04T23:37:29.655Z,10.73
2019-04-04T23:39:57.805Z,10.07
2019-04-04T23:42:26.317Z,10.25
2019-04-04T23:45:00.968Z,11.10
2019-04-04T23:47:25.033Z,11.07
2019-04-04T23:49:53.169Z,10.27
2019-04-04T23:52:21.313Z,11.10
2019-04-04T23:54:49.443Z,11.30
2019-04-04T23:57:17.557Z,10.93
2019-04-04T23:59:45.675Z,10.95
